Time;durP1;ratioP1;P1;durP2;ratioP2;P2;SDS_P1;SDS_P2;PMS_P1;PMS_P2;Temp;Humidity;BMP_temperature;BMP_pressure;BME280_temperature;BME280_humidity;BME280_pressure;Samples;Min_cycle;Max_cycle;Signal;HPM_P1;HPM_P2
2021/05/29 00:01:49;;;;;;;15.45;6.00;;;;;;;8.16;100.00;101423.53;5077215;28;20025;-79
2021/05/29 00:04:14;;;;;;;11.27;5.55;;;;;;;8.18;100.00;101424.38;5075877;28;20029;-79
2021/05/29 00:06:39;;;;;;;16.20;6.32;;;;;;;8.17;100.00;101417.50;5077061;28;20036;-79
2021/05/29 00:09:04;;;;;;;10.95;5.93;;;;;;;8.13;100.00;101417.44;5075957;28;20036;-79
2021/05/29 00:11:30;;;;;;;16.73;6.70;;;;;;;8.13;100.00;101414.84;5076996;28;20039;-79
2021/05/29 00:13:55;;;;;;;13.98;5.85;;;;;;;8.16;100.00;101415.78;5075889;28;20419;-79
2021/05/29 00:16:21;;;;;;;13.52;5.85;;;;;;;8.19;100.00;101418.38;5077549;28;20035;-79
2021/05/29 00:18:46;;;;;;;12.93;5.82;;;;;;;8.19;100.00;101415.78;5083087;28;20012;-78
2021/05/29 00:21:11;;;;;;;12.50;5.70;;;;;;;8.16;100.00;101418.34;5101573;28;20048;-78
2021/05/29 00:23:37;;;;;;;13.68;6.47;;;;;;;8.13;100.00;101418.34;5088742;28;20032;-79
2021/05/29 00:26:03;;;;;;;8.77;5.80;;;;;;;8.10;100.00;101410.56;5077319;28;20423;-79
2021/05/29 00:28:28;;;;;;;13.35;6.95;;;;;;;7.96;100.00;101407.88;5077116;28;20031;-79
2021/05/29 00:30:53;;;;;;;12.80;6.97;;;;;;;8.02;100.00;101407.91;5075346;28;20473;-79
2021/05/29 00:33:18;;;;;;;15.13;6.43;;;;;;;8.01;100.00;101411.38;5075485;28;20024;-79
2021/05/29 00:35:44;;;;;;;15.55;6.60;;;;;;;8.01;100.00;101406.22;5075307;28;20396;-79
2021/05/29 00:38:09;;;;;;;13.70;6.95;;;;;;;8.05;100.00;101409.66;5076533;28;20111;-79
2021/05/29 00:40:35;;;;;;;15.45;7.07;;;;;;;7.98;100.00;101406.19;5075476;28;20086;-79
2021/05/29 00:43:01;;;;;;;15.23;6.90;;;;;;;8.00;100.00;101419.97;5076364;28;20070;-79
2021/05/29 00:45:27;;;;;;;14.40;7.00;;;;;;;7.94;100.00;101419.91;5075205;28;20059;-79
2021/05/29 00:47:53;;;;;;;11.45;6.78;;;;;;;7.99;100.00;101422.53;5076035;28;20436;-79
2021/05/29 00:50:18;;;;;;;13.27;6.90;;;;;;;7.98;100.00;101426.84;5074518;28;20445;-79
2021/05/29 00:52:44;;;;;;;11.10;5.95;;;;;;;7.89;100.00;101416.47;5076064;28;20063;-79
2021/05/29 00:55:12;;;;;;;13.68;6.53;;;;;;;7.90;100.00;101418.19;5076241;28;20024;-79
2021/05/29 00:57:40;;;;;;;13.23;6.45;;;;;;;7.90;100.00;101420.75;5074774;28;20020;-79
2021/05/29 01:00:07;;;;;;;13.20;6.03;;;;;;;7.86;100.00;101433.66;5076213;28;20437;-79
2021/05/29 01:02:33;;;;;;;12.82;5.78;;;;;;;7.87;100.00;101433.66;5076134;28;20024;-79
2021/05/29 01:04:58;;;;;;;17.35;6.65;;;;;;;7.83;100.00;101437.09;5074966;28;20035;-79
2021/05/29 01:07:23;;;;;;;15.55;6.75;;;;;;;7.89;100.00;101431.97;5075934;28;20434;-79
2021/05/29 01:09:48;;;;;;;14.15;6.07;;;;;;;7.88;100.00;101427.63;5074837;28;20036;-79
2021/05/29 01:12:17;;;;;;;16.67;6.32;;;;;;;7.91;100.00;101434.53;5074731;28;20033;-79
2021/05/29 01:14:51;;;;;;;14.95;6.35;;;;;;;7.89;100.00;101437.13;5075920;28;20032;-79
2021/05/29 01:17:16;;;;;;;10.82;6.18;;;;;;;7.86;100.00;101436.25;5074629;28;20021;-79
2021/05/29 01:19:42;;;;;;;12.38;6.25;;;;;;;7.88;100.00;101439.69;5074550;28;20037;-79
2021/05/29 01:22:09;;;;;;;13.32;5.72;;;;;;;7.90;100.00;101437.97;5074303;28;20047;-79
2021/05/29 01:24:35;;;;;;;14.90;7.03;;;;;;;7.82;100.00;101433.63;5074529;28;20035;-79
2021/05/29 01:27:01;;;;;;;14.95;6.07;;;;;;;7.82;100.00;101432.78;5075639;28;20030;-79
2021/05/29 01:29:28;;;;;;;15.10;6.85;;;;;;;7.80;100.00;101440.50;5074394;28;20103;-79
2021/05/29 01:32:01;;;;;;;14.77;6.63;;;;;;;7.87;100.00;101432.78;5074168;28;20025;-79
2021/05/29 01:34:30;;;;;;;14.80;6.60;;;;;;;7.74;100.00;101434.44;5074655;28;20127;-79
2021/05/29 01:36:55;;;;;;;13.80;7.13;;;;;;;7.69;100.00;101439.53;5074260;28;20194;-79
2021/05/29 01:39:21;;;;;;;16.85;6.45;;;;;;;7.76;100.00;101435.31;5074296;28;20031;-79
2021/05/29 01:41:46;;;;;;;14.38;6.80;;;;;;;7.83;100.00;101439.66;5074053;28;20029;-79
2021/05/29 01:44:12;;;;;;;14.75;6.78;;;;;;;7.84;100.00;101442.25;5074111;28;20036;-79
2021/05/29 01:46:38;;;;;;;15.95;6.70;;;;;;;7.84;100.00;101451.72;5075354;28;20108;-79
2021/05/29 01:49:03;;;;;;;11.10;6.00;;;;;;;7.85;100.00;101445.72;5073994;28;20020;-79
2021/05/29 01:51:28;;;;;;;13.43;6.80;;;;;;;7.83;100.00;101445.69;5073908;28;20020;-79
2021/05/29 01:53:54;;;;;;;15.02;7.10;;;;;;;7.78;100.00;101449.09;5074038;28;20016;-79
2021/05/29 01:56:20;;;;;;;13.80;6.85;;;;;;;7.70;100.00;101446.47;5074259;28;20028;-79
2021/05/29 01:58:46;;;;;;;13.73;6.57;;;;;;;7.72;100.00;101444.72;5074100;28;20093;-79
2021/05/29 02:01:12;;;;;;;14.82;6.25;;;;;;;7.73;100.00;101449.06;5073640;28;20036;-79
2021/05/29 02:03:40;;;;;;;13.90;6.55;;;;;;;7.70;100.00;101440.44;5072848;28;20016;-79
2021/05/29 02:06:05;;;;;;;13.20;6.43;;;;;;;7.68;100.00;101447.28;5075052;28;20404;-79
2021/05/29 02:08:31;;;;;;;12.63;5.82;;;;;;;7.65;100.00;101453.28;5073690;28;20031;-79
2021/05/29 02:10:56;;;;;;;12.13;5.68;;;;;;;7.64;100.00;101446.41;5074925;28;20021;-79
2021/05/29 02:13:25;;;;;;;12.05;6.07;;;;;;;7.58;100.00;101451.53;5073537;28;20024;-80
2021/05/29 02:15:52;;;;;;;11.20;5.35;;;;;;;7.64;100.00;101451.56;5073503;28;20016;-79
2021/05/29 02:18:17;;;;;;;13.63;6.10;;;;;;;7.63;100.00;101449.81;5073586;28;20396;-79
2021/05/29 02:20:54;;;;;;;11.23;5.50;;;;;;;7.61;100.00;101455.00;5074246;28;20021;-79
2021/05/29 02:23:40;;;;;;;13.07;5.65;;;;;;;7.65;100.00;101458.47;5073831;28;20035;-79
2021/05/29 02:26:09;;;;;;;12.13;5.78;;;;;;;7.58;100.00;101457.53;5073503;28;20030;-79
2021/05/29 02:28:35;;;;;;;12.40;6.28;;;;;;;7.52;100.00;101462.66;5073176;28;20074;-79
2021/05/29 02:31:01;;;;;;;14.55;6.38;;;;;;;7.57;100.00;101455.81;5097357;22;20032;-84
2021/05/29 02:33:27;;;;;;;13.23;5.47;;;;;;;7.52;100.00;101452.31;5073772;28;20025;-83
2021/05/29 02:35:53;;;;;;;15.45;5.88;;;;;;;7.54;100.00;101460.06;5089803;28;20029;-83
2021/05/29 02:38:19;;;;;;;13.98;6.18;;;;;;;7.46;100.00;101462.59;5072868;28;20392;-83
2021/05/29 02:40:44;;;;;;;12.60;6.40;;;;;;;7.49;100.00;101460.03;5074174;28;20025;-83
2021/05/29 02:43:10;;;;;;;15.05;6.60;;;;;;;7.52;100.00;101461.78;5070849;28;20040;-83
2021/05/29 02:45:36;;;;;;;10.52;6.13;;;;;;;7.49;100.00;101462.63;5052690;28;20063;-83
2021/05/29 02:48:02;;;;;;;11.63;6.47;;;;;;;7.46;100.00;101465.19;5053293;28;20074;-83
2021/05/29 02:50:28;;;;;;;11.82;6.13;;;;;;;7.47;100.00;101461.75;5052583;28;20029;-84
2021/05/29 02:52:53;;;;;;;14.52;6.60;;;;;;;7.43;100.00;101462.56;5052570;28;20017;-84
2021/05/29 02:55:24;;;;;;;11.82;6.00;;;;;;;7.48;100.00;101470.34;5053004;28;20495;-84
2021/05/29 02:57:51;;;;;;;13.30;6.35;;;;;;;7.43;100.00;101464.28;5055289;28;20056;-83
2021/05/29 03:00:18;;;;;;;12.50;6.75;;;;;;;7.40;100.00;101456.53;5069261;28;20036;-83
2021/05/29 03:02:43;;;;;;;14.38;6.43;;;;;;;7.48;100.00;101460.91;5053618;28;20089;-83
2021/05/29 03:05:09;;;;;;;12.85;6.00;;;;;;;7.44;100.00;101459.13;5053545;28;20028;-83
2021/05/29 03:07:35;;;;;;;13.50;5.57;;;;;;;7.47;100.00;101464.31;5068941;28;20113;-83
2021/05/29 03:10:00;;;;;;;14.80;6.10;;;;;;;7.46;100.00;101459.16;5052352;28;20135;-83
2021/05/29 03:12:26;;;;;;;12.18;6.20;;;;;;;7.48;100.00;101463.50;5052310;28;20074;-83
2021/05/29 03:14:51;;;;;;;12.27;5.95;;;;;;;7.48;100.00;101449.69;5053907;28;20021;-83
2021/05/29 03:17:17;;;;;;;12.93;5.90;;;;;;;7.40;100.00;101452.22;5052422;28;20273;-83
2021/05/29 03:19:42;;;;;;;19.85;6.55;;;;;;;7.45;100.00;101460.88;5052060;28;20024;-84
2021/05/29 03:22:08;;;;;;;14.70;5.97;;;;;;;7.40;100.00;101448.78;5052116;28;20523;-84
2021/05/29 03:24:33;;;;;;;12.85;6.63;;;;;;;7.37;100.00;101457.34;5068819;28;20036;-84
2021/05/29 03:26:58;;;;;;;13.55;5.93;;;;;;;7.38;100.00;101464.22;5053239;28;20476;-83
2021/05/29 03:29:23;;;;;;;13.50;5.90;;;;;;;7.40;100.00;101462.53;5054276;28;20025;-83
2021/05/29 03:31:49;;;;;;;11.77;6.80;;;;;;;7.45;100.00;101466.03;5052036;28;20362;-83
2021/05/29 03:34:14;;;;;;;17.67;6.45;;;;;;;7.48;100.00;101467.75;5052008;28;20059;-83
2021/05/29 03:36:39;;;;;;;12.35;6.10;;;;;;;7.47;100.00;101474.66;5051959;28;20112;-84
2021/05/29 03:39:06;;;;;;;11.10;5.85;;;;;;;7.52;100.00;101475.56;5052016;28;20096;-84
2021/05/29 03:41:31;;;;;;;11.95;5.50;;;;;;;7.44;100.00;101482.34;5068908;28;20025;-84
2021/05/29 03:43:56;;;;;;;13.90;5.72;;;;;;;7.47;100.00;101474.66;5051857;28;20032;-84
2021/05/29 03:46:22;;;;;;;14.57;5.80;;;;;;;7.50;100.00;101473.81;5054547;28;20025;-84
2021/05/29 03:48:47;;;;;;;16.45;5.75;;;;;;;7.52;100.00;101478.16;5052922;28;20035;-84
2021/05/29 03:51:13;;;;;;;12.10;5.60;;;;;;;7.52;100.00;101472.13;5051986;28;20025;-84
2021/05/29 03:53:38;;;;;;;12.65;5.28;;;;;;;7.55;100.00;101462.69;5052900;28;20025;-84
2021/05/29 03:56:04;;;;;;;13.73;5.75;;;;;;;7.53;100.00;101473.84;5051714;28;20477;-84
2021/05/29 03:58:30;;;;;;;14.75;5.40;;;;;;;7.48;100.00;101478.97;5051652;28;20021;-84
2021/05/29 04:00:56;;;;;;;15.18;6.40;;;;;;;7.48;100.00;101476.41;5051688;28;20024;-84
2021/05/29 04:03:21;;;;;;;13.57;6.20;;;;;;;7.52;100.00;101477.28;5053740;28;20110;-83
2021/05/29 04:05:46;;;;;;;10.98;5.50;;;;;;;7.57;100.00;101475.59;5052870;28;20020;-83
2021/05/29 04:08:12;;;;;;;14.05;5.93;;;;;;;7.53;100.00;101477.28;5052872;28;20021;-84
2021/05/29 04:10:37;;;;;;;11.85;6.28;;;;;;;7.56;100.00;101477.31;5051547;28;20185;-84
2021/05/29 04:13:03;;;;;;;13.63;6.13;;;;;;;7.57;100.00;101478.16;5052699;28;20056;-84
2021/05/29 04:15:28;;;;;;;12.93;6.22;;;;;;;7.56;100.00;101482.47;5051667;28;20087;-84
2021/05/29 04:17:54;;;;;;;12.10;6.68;;;;;;;7.53;100.00;101477.28;5070605;28;20029;-84
2021/05/29 04:20:22;;;;;;;13.40;6.57;;;;;;;7.55;100.00;101482.47;5051825;28;20029;-84
2021/05/29 04:22:47;;;;;;;13.07;6.00;;;;;;;7.60;100.00;101483.34;5051353;28;20017;-84
2021/05/29 04:25:16;;;;;;;13.48;6.95;;;;;;;7.62;100.00;101486.84;5053265;28;20082;-84
2021/05/29 04:27:42;;;;;;;13.45;5.80;;;;;;;7.61;100.00;101485.09;5055649;28;20055;-84
2021/05/29 04:30:12;;;;;;;12.98;6.82;;;;;;;7.65;100.00;101489.44;5071926;28;20154;-84
2021/05/29 04:32:37;;;;;;;15.25;7.18;;;;;;;7.63;100.00;101491.13;5056163;28;20029;-84
2021/05/29 04:35:04;;;;;;;14.27;6.20;;;;;;;7.70;100.00;101482.59;5056913;28;20346;-83
2021/05/29 04:37:29;;;;;;;13.27;6.20;;;;;;;7.66;100.00;101486.00;5056216;28;20477;-84
2021/05/29 04:39:54;;;;;;;10.82;5.80;;;;;;;7.69;100.00;101490.31;5054977;28;20040;-84
2021/05/29 04:42:20;;;;;;;13.73;5.38;;;;;;;7.63;100.00;101490.28;5055996;28;20033;-84
2021/05/29 04:44:45;;;;;;;11.25;6.30;;;;;;;7.67;100.00;101489.47;5056061;28;20052;-84
2021/05/29 04:47:11;;;;;;;12.38;5.80;;;;;;;7.76;100.00;101489.53;5054802;28;20017;-84
2021/05/29 04:49:36;;;;;;;10.80;6.30;;;;;;;7.70;100.00;101492.06;5055924;28;20025;-84
2021/05/29 04:52:02;;;;;;;14.95;5.85;;;;;;;7.78;100.00;101500.72;5055249;28;20111;-84
2021/05/29 04:54:27;;;;;;;14.50;5.68;;;;;;;7.86;100.00;101493.06;5054675;28;20013;-84
2021/05/29 04:56:53;;;;;;;12.98;5.15;;;;;;;7.86;100.00;101498.22;5054554;28;20025;-84
2021/05/29 04:59:18;;;;;;;15.95;6.90;;;;;;;7.77;100.00;101486.97;5055516;28;20024;-84
2021/05/29 05:01:44;;;;;;;13.60;6.40;;;;;;;7.83;100.00;101491.31;5055724;28;20021;-84
2021/05/29 05:04:09;;;;;;;16.98;6.60;;;;;;;7.87;100.00;101499.94;5055046;28;20112;-84
2021/05/29 05:06:34;;;;;;;13.57;5.65;;;;;;;7.88;100.00;101491.34;5055103;28;20048;-84
2021/05/29 05:09:00;;;;;;;11.50;6.47;;;;;;;7.85;100.00;101487.03;5054488;28;20032;-84
2021/05/29 05:11:25;;;;;;;12.38;5.90;;;;;;;7.90;100.00;101493.09;5071169;28;20399;-84
2021/05/29 05:13:50;;;;;;;15.07;6.38;;;;;;;7.91;100.00;101491.38;5054391;28;20115;-84
2021/05/29 05:16:17;;;;;;;15.20;6.25;;;;;;;7.97;100.00;101491.41;5054407;28;20029;-84
2021/05/29 05:18:43;;;;;;;15.48;6.07;;;;;;;7.91;100.00;101489.63;5055154;28;20481;-84
2021/05/29 05:21:09;;;;;;;11.35;6.07;;;;;;;8.00;100.00;101502.63;5054651;28;20017;-84
2021/05/29 05:23:35;;;;;;;13.32;5.97;;;;;;;8.01;100.00;101498.34;5054390;28;20032;-84
2021/05/29 05:26:00;;;;;;;16.85;5.85;;;;;;;8.02;100.00;101489.72;5054235;28;20027;-84
2021/05/29 05:28:28;;;;;;;13.40;5.88;;;;;;;8.08;100.00;101500.13;5054489;28;20029;-84
2021/05/29 05:30:54;;;;;;;13.27;6.40;;;;;;;8.07;100.00;101504.41;5053836;28;20116;-84
2021/05/29 05:33:20;;;;;;;14.48;7.18;;;;;;;7.95;100.00;101506.06;5054175;28;20119;-84
2021/05/29 05:35:46;;;;;;;20.13;6.90;;;;;;;8.11;100.00;101514.78;5055187;28;20032;-84
2021/05/29 05:38:12;;;;;;;15.77;6.65;;;;;;;8.05;100.00;101515.59;5053848;28;20028;-84
2021/05/29 05:40:38;;;;;;;17.05;7.65;;;;;;;8.07;100.00;101511.31;5055054;28;20106;-84
2021/05/29 05:43:03;;;;;;;15.48;6.70;;;;;;;8.01;100.00;101512.13;5053705;28;20393;-84
2021/05/29 05:45:28;;;;;;;20.85;7.47;;;;;;;8.15;100.00;101517.38;5054119;28;20028;-84
2021/05/29 05:47:53;;;;;;;15.57;7.15;;;;;;;8.07;100.00;101509.59;5071748;28;20025;-84
2021/05/29 05:50:19;;;;;;;14.70;6.78;;;;;;;8.06;100.00;101520.75;5053577;28;20035;-84
2021/05/29 05:52:44;;;;;;;13.93;7.25;;;;;;;8.01;100.00;101514.72;5054744;28;20021;-84
2021/05/29 05:55:11;;;;;;;14.65;7.18;;;;;;;8.11;100.00;101519.94;5053711;28;20476;-84
2021/05/29 05:57:37;;;;;;;15.77;6.50;;;;;;;8.12;100.00;101522.53;5053652;28;20055;-84
2021/05/29 06:00:09;;;;;;;14.55;7.25;;;;;;;8.04;100.00;101524.22;5053928;28;20067;-83
2021/05/29 06:02:35;;;;;;;15.23;7.38;;;;;;;8.14;100.00;101535.47;5055795;28;20477;-84
2021/05/29 06:05:00;;;;;;;14.77;7.00;;;;;;;8.15;100.00;101532.03;5053348;28;20025;-84
2021/05/29 06:07:25;;;;;;;15.25;7.10;;;;;;;8.10;100.00;101537.16;5054542;28;20112;-84
2021/05/29 06:09:50;;;;;;;15.35;7.88;;;;;;;8.22;100.00;101533.78;5054553;28;20028;-84
2021/05/29 06:12:16;;;;;;;16.02;6.93;;;;;;;8.35;100.00;101538.22;5053019;28;20401;-84
2021/05/29 06:20:12;;;;;;;10.88;5.75;;;;;;;8.40;100.00;101546.00;5054941;28;20340;-84
2021/05/29 06:22:39;;;;;;;14.15;5.70;;;;;;;8.38;100.00;101545.13;5052980;28;20017;-84
2021/05/29 06:25:06;;;;;;;11.40;6.07;;;;;;;8.22;100.00;101546.72;5052940;28;20025;-84
2021/05/29 06:27:32;;;;;;;10.73;5.82;;;;;;;8.34;100.00;101549.38;5053902;28;20021;-84
2021/05/29 06:29:57;;;;;;;12.27;6.45;;;;;;;8.39;100.00;101558.06;5052856;28;20021;-84
2021/05/29 06:32:22;;;;;;;13.43;6.35;;;;;;;8.34;100.00;101543.34;5054093;28;20035;-84
2021/05/29 06:34:47;;;;;;;14.00;6.90;;;;;;;8.38;100.00;101548.59;5069438;28;20075;-84
2021/05/29 06:37:13;;;;;;;12.88;6.18;;;;;;;8.44;100.00;101553.81;5053957;28;20487;-84
2021/05/29 06:39:38;;;;;;;14.32;6.03;;;;;;;8.46;100.00;101546.91;5070791;28;20070;-84
2021/05/29 06:42:04;;;;;;;10.90;6.13;;;;;;;8.50;100.00;101550.41;5069338;28;20030;-84
2021/05/29 06:44:29;;;;;;;13.43;6.50;;;;;;;8.42;100.00;101562.41;5052716;28;20032;-84
2021/05/29 06:46:55;;;;;;;12.85;6.20;;;;;;;8.51;100.00;101553.00;5053497;28;20510;-84
2021/05/29 06:49:21;;;;;;;12.93;5.85;;;;;;;8.55;100.00;101556.44;5053405;28;20025;-83
2021/05/29 06:54:23;;;;;;;16.00;5.93;;;;;;;8.71;100.00;101555.72;5055349;28;20104;-84
2021/05/29 06:59:32;;;;;;;15.70;7.03;;;;;;;8.85;100.00;101557.50;5054074;28;20074;-84
2021/05/29 07:01:58;;;;;;;11.00;6.45;;;;;;;8.73;100.00;101553.97;5052384;28;20032;-85
2021/05/29 07:04:24;;;;;;;14.00;6.28;;;;;;;8.76;100.00;101559.16;5052499;28;20466;-84
2021/05/29 07:06:49;;;;;;;11.25;6.20;;;;;;;8.85;100.00;101558.34;5052714;28;20032;-84
2021/05/29 07:09:17;;;;;;;14.30;7.05;;;;;;;8.82;100.00;101563.50;5055960;28;20028;-84
2021/05/29 07:11:43;;;;;;;12.73;6.50;;;;;;;8.84;100.00;101560.94;5052174;28;20174;-84
2021/05/29 07:14:08;;;;;;;13.38;5.88;;;;;;;8.96;100.00;101564.44;5052180;28;20107;-84
2021/05/29 07:16:35;;;;;;;11.95;6.40;;;;;;;8.99;100.00;101564.47;5053313;28;20055;-84
2021/05/29 07:19:01;;;;;;;12.07;6.05;;;;;;;9.20;100.00;101558.47;5068840;28;20021;-84
2021/05/29 07:21:26;;;;;;;12.65;5.65;;;;;;;9.20;100.00;101567.97;5053650;28;20075;-85
2021/05/29 07:23:51;;;;;;;13.23;6.07;;;;;;;8.89;100.00;101572.16;5053749;28;20094;-84
2021/05/29 07:26:17;;;;;;;12.23;6.30;;;;;;;9.09;100.00;101580.03;5073404;28;20029;-84
2021/05/29 07:28:42;;;;;;;12.88;6.10;;;;;;;9.18;99.14;101578.34;5055191;28;20032;-84
2021/05/29 07:31:08;;;;;;;11.13;5.65;;;;;;;9.20;98.29;101586.97;5070531;28;20032;-84
2021/05/29 07:33:33;;;;;;;11.48;6.32;;;;;;;9.15;97.58;101575.75;5053863;28;20051;-83
2021/05/29 07:35:59;;;;;;;11.68;6.30;;;;;;;9.48;96.45;101591.38;5054066;28;20017;-84
2021/05/29 07:38:24;;;;;;;13.30;6.95;;;;;;;9.53;94.33;101589.66;5069842;28;20112;-84
2021/05/29 07:40:50;;;;;;;15.40;6.90;;;;;;;9.51;93.92;101594.81;5054672;28;20338;-84
2021/05/29 07:43:15;;;;;;;12.13;6.35;;;;;;;9.60;93.26;101594.84;5052531;28;20124;-84
2021/05/29 07:45:41;;;;;;;12.48;6.85;;;;;;;9.66;92.45;101592.28;5052688;28;20099;-84
2021/05/29 07:48:08;;;;;;;11.30;7.10;;;;;;;9.64;93.77;101595.75;5052791;28;20106;-84
2021/05/29 07:50:33;;;;;;;11.82;7.18;;;;;;;9.75;92.45;101603.53;5052585;28;20095;-84
2021/05/29 07:53:01;;;;;;;12.23;6.57;;;;;;;9.99;91.97;101600.13;5055298;28;20020;-84
2021/05/29 07:55:27;;;;;;;12.25;7.50;;;;;;;9.97;90.93;101597.50;5052493;28;20033;-84
2021/05/29 07:57:52;;;;;;;11.02;7.25;;;;;;;10.15;89.91;101597.53;5052228;28;20051;-84
2021/05/29 08:00:23;;;;;;;11.65;6.90;;;;;;;10.01;90.19;101603.59;5052866;28;20063;-83
2021/05/29 08:02:49;;;;;;;13.50;7.40;;;;;;;10.11;89.82;101602.72;5058402;28;20034;-85
2021/05/29 08:05:19;;;;;;;10.55;6.50;;;;;;;9.91;89.52;101598.41;5055572;28;20029;-84
2021/05/29 08:07:44;;;;;;;10.30;6.30;;;;;;;10.03;89.85;101607.88;5057485;28;20031;-83
2021/05/29 08:10:10;;;;;;;8.77;5.35;;;;;;;9.94;90.53;101609.59;5072524;28;20108;-84
2021/05/29 08:12:36;;;;;;;11.15;5.10;;;;;;;9.94;88.17;101604.41;5055930;28;20052;-84
2021/05/29 08:15:02;;;;;;;9.32;5.13;;;;;;;9.89;89.51;101605.28;5057392;28;20021;-85
2021/05/29 08:17:27;;;;;;;8.30;4.63;;;;;;;10.02;89.34;101605.31;5055498;28;20032;-84
2021/05/29 08:19:52;;;;;;;11.05;4.90;;;;;;;10.58;87.17;101602.72;5057166;28;20024;-85
2021/05/29 08:22:17;;;;;;;15.15;5.45;;;;;;;10.61;87.82;101601.84;5055699;28;20127;-85
2021/05/29 08:24:43;;;;;;;9.57;5.05;;;;;;;10.56;87.41;101599.28;5056399;28;20029;-85
2021/05/29 08:27:08;;;;;;;8.43;4.18;;;;;;;10.30;86.45;101607.06;5055572;28;20053;-85
2021/05/29 08:29:33;;;;;;;12.57;4.13;;;;;;;10.30;86.78;101604.47;5055534;28;20029;-85
2021/05/29 08:31:59;;;;;;;10.52;4.68;;;;;;;10.63;85.94;101605.31;5055330;28;20033;-84
2021/05/29 08:34:24;;;;;;;8.75;4.30;;;;;;;10.68;83.55;101613.06;5084463;22;20055;-79
2021/05/29 08:36:49;;;;;;;10.27;4.78;;;;;;;11.41;82.99;101606.78;5060374;28;20104;-80
2021/05/29 08:39:15;;;;;;;10.85;3.97;;;;;;;11.61;80.24;101604.97;5077855;28;20032;-79
2021/05/29 08:41:40;;;;;;;8.48;3.75;;;;;;;11.31;80.70;101605.13;5077730;28;20028;-79
2021/05/29 08:44:09;;;;;;;11.23;3.80;;;;;;;11.74;78.50;101601.41;5059688;28;20035;-80
2021/05/29 08:46:34;;;;;;;10.57;4.10;;;;;;;11.53;78.94;101606.72;5059409;28;20044;-80
2021/05/29 08:48:59;;;;;;;8.73;4.40;;;;;;;11.44;78.59;101605.03;5059880;28;20476;-79
2021/05/29 08:51:25;;;;;;;12.40;4.53;;;;;;;11.87;77.54;101606.56;5077707;28;20253;-79
2021/05/29 08:53:56;;;;;;;10.02;3.88;;;;;;;11.53;78.09;101606.72;5077861;28;20016;-79
2021/05/29 08:56:22;;;;;;;8.70;4.18;;;;;;;11.25;78.17;101606.88;5060392;28;20028;-79
2021/05/29 08:58:47;;;;;;;9.48;4.20;;;;;;;11.51;80.86;101622.34;5078366;28;20096;-79
2021/05/29 09:01:13;;;;;;;9.35;3.97;;;;;;;11.69;79.41;101618.75;5059678;28;20047;-79
2021/05/29 09:03:45;;;;;;;11.95;4.10;;;;;;;11.48;79.49;101619.75;5059308;28;20108;-80
2021/05/29 09:06:12;;;;;;;8.45;4.18;;;;;;;11.63;78.96;101620.53;5078132;28;20033;-79
2021/05/29 09:08:50;;;;;;;8.55;3.85;;;;;;;11.93;78.40;101627.31;5060012;28;20472;-79
2021/05/29 09:11:53;;;;;;;9.32;4.07;;;;;;;11.57;78.58;101629.22;5077685;28;20029;-79
2021/05/29 09:14:21;;;;;;;11.15;4.28;;;;;;;12.16;77.54;101641.03;5077688;28;20074;-80
2021/05/29 09:17:24;;;;;;;8.95;4.07;;;;;;;12.41;73.84;101639.09;5078051;28;20021;-79
2021/05/29 09:19:59;;;;;;;11.05;4.53;;;;;;;12.15;74.49;101644.50;5059625;28;20063;-79
2021/05/29 09:22:56;;;;;;;9.23;4.20;;;;;;;12.26;72.99;101644.44;5059830;28;20025;-79
2021/05/29 09:25:23;;;;;;;8.38;3.90;;;;;;;12.74;71.13;101633.59;5077220;28;20124;-80
2021/05/29 09:27:59;;;;;;;7.95;4.93;;;;;;;12.49;70.60;101644.22;5077749;28;20059;-80
2021/05/29 09:31:03;;;;;;;10.57;5.15;;;;;;;12.81;69.45;101638.72;5078278;28;20024;-80
2021/05/29 09:33:35;;;;;;;9.27;5.65;;;;;;;14.25;63.34;101643.81;5057353;28;20036;-80
2021/05/29 09:36:09;;;;;;;9.15;6.15;;;;;;;12.65;71.48;101637.13;5060283;28;20016;-80
2021/05/29 09:38:36;;;;;;;9.95;5.97;;;;;;;12.43;70.87;101649.47;5060696;28;20047;-80
2021/05/29 09:41:02;;;;;;;12.43;7.00;;;;;;;12.59;72.34;101656.31;5059776;28;20028;-80
2021/05/29 09:43:27;;;;;;;10.45;7.20;;;;;;;12.10;73.50;101650.59;5059314;28;20051;-79
2021/05/29 09:46:04;;;;;;;9.90;6.43;;;;;;;12.58;71.39;101648.50;5077957;28;20028;-79
2021/05/29 09:48:31;;;;;;;10.77;7.20;;;;;;;12.97;67.92;101646.38;5059395;28;20064;-79
2021/05/29 09:51:01;;;;;;;11.95;7.55;;;;;;;12.52;70.75;101657.22;5076631;28;20059;-79
2021/05/29 09:53:29;;;;;;;11.63;6.85;;;;;;;12.21;72.16;101654.00;5059058;28;20052;-80
2021/05/29 09:55:54;;;;;;;10.65;6.85;;;;;;;12.09;73.16;101654.06;5076834;28;20025;-79
2021/05/29 09:58:20;;;;;;;12.60;7.05;;;;;;;12.25;71.03;101652.22;5059398;28;20020;-79
2021/05/29 10:00:50;;;;;;;12.23;6.70;;;;;;;12.33;71.35;101655.66;5059104;28;20037;-80
2021/05/29 10:03:16;;;;;;;9.77;5.60;;;;;;;11.78;72.75;101654.22;5058851;28;20025;-80
2021/05/29 10:05:43;;;;;;;8.43;5.28;;;;;;;12.10;72.81;101656.69;5077640;28;20033;-80
2021/05/29 10:08:13;;;;;;;9.40;5.40;;;;;;;12.20;71.96;101655.72;5059958;28;20373;-80
2021/05/29 10:10:38;;;;;;;9.07;5.32;;;;;;;15.34;61.49;101642.75;5077392;28;20027;-81
2021/05/29 10:13:04;;;;;;;9.80;5.03;;;;;;;13.39;67.53;101650.25;5059045;28;20017;-81
2021/05/29 10:15:30;;;;;;;10.52;5.70;;;;;;;13.15;67.68;101643.56;5059369;28;20048;-80
2021/05/29 10:17:58;;;;;;;9.40;4.90;;;;;;;13.65;67.27;101662.97;5095409;28;20060;-81
2021/05/29 10:20:24;;;;;;;9.25;5.18;;;;;;;13.59;66.97;101655.22;5094566;28;20511;-80
2021/05/29 10:22:51;;;;;;;11.18;5.22;;;;;;;13.01;69.98;101650.66;5075231;28;20514;-80
2021/05/29 10:25:19;;;;;;;11.25;5.03;;;;;;;13.14;69.33;101652.25;5057893;28;20017;-80
2021/05/29 10:27:47;;;;;;;7.63;4.57;;;;;;;13.24;69.46;101651.28;5058280;28;20024;-80
2021/05/29 10:30:13;;;;;;;9.93;5.35;;;;;;;12.89;70.87;101655.13;5058405;28;20032;-80
2021/05/29 10:32:39;;;;;;;10.05;5.32;;;;;;;12.67;73.25;101664.03;5077201;28;20020;-80
2021/05/29 10:35:09;;;;;;;12.48;5.97;;;;;;;12.46;73.39;101654.66;5058321;28;20086;-80
2021/05/29 10:37:43;;;;;;;9.80;5.45;;;;;;;12.50;73.18;101663.28;5058954;28;20016;-80
2021/05/29 10:40:14;;;;;;;8.27;5.03;;;;;;;12.41;72.78;101672.06;5058034;28;20503;-79
2021/05/29 10:42:39;;;;;;;11.50;5.45;;;;;;;12.97;70.78;101657.66;5057045;28;20052;-79
2021/05/29 10:45:24;;;;;;;8.75;5.10;;;;;;;12.67;72.33;101664.03;5074807;28;20472;-79
2021/05/29 10:48:04;;;;;;;8.32;4.57;;;;;;;13.26;71.49;101669.53;5057136;28;20025;-79
2021/05/29 10:50:55;;;;;;;9.48;5.68;;;;;;;12.65;70.40;101671.88;5075191;28;20032;-79
2021/05/29 10:53:38;;;;;;;11.80;5.70;;;;;;;12.47;74.61;101674.63;5075026;28;20062;-79
2021/05/29 10:56:19;;;;;;;10.13;5.00;;;;;;;12.98;72.05;101674.16;5057161;28;20042;-80
2021/05/29 10:58:54;;;;;;;11.00;5.07;;;;;;;12.76;71.78;101674.34;5057505;28;20020;-80
2021/05/29 11:01:19;;;;;;;;;;;;;;;12.75;70.07;101669.19;5057705;28;20035;-80
2021/05/29 11:07:43;;;;;;;9.73;4.65;;;;;;;12.48;75.24;101680.69;5076054;28;20250;-80
2021/05/29 11:10:28;;;;;;;8.88;4.05;;;;;;;12.71;75.00;101678.72;5057732;28;20024;-80
2021/05/29 11:12:54;;;;;;;8.50;4.38;;;;;;;12.20;75.07;101673.09;5075200;28;20021;-80
2021/05/29 11:15:55;;;;;;;9.43;4.15;;;;;;;12.54;74.57;101673.69;5057302;28;20439;-79
2021/05/29 11:18:20;;;;;;;10.30;4.00;;;;;;;12.96;73.10;101671.56;5057082;28;20028;-80
2021/05/29 11:21:01;;;;;;;9.23;4.20;;;;;;;13.22;73.20;101673.03;5075202;28;20074;-79
2021/05/29 11:23:27;;;;;;;10.55;4.30;;;;;;;13.04;73.78;101669.72;5057457;28;20069;-79
2021/05/29 11:25:52;;;;;;;10.57;4.47;;;;;;;13.16;74.60;101670.50;5075789;28;20059;-79
2021/05/29 11:28:21;;;;;;;10.45;4.90;;;;;;;12.88;73.75;101678.59;5058544;28;20024;-80
2021/05/29 11:30:47;;;;;;;9.52;4.95;;;;;;;12.11;75.85;101671.41;5076081;28;20032;-81
2021/05/29 11:33:13;;;;;;;9.50;5.00;;;;;;;12.54;75.63;101671.06;5057462;28;20100;-80
2021/05/29 11:35:50;;;;;;;10.80;5.10;;;;;;;12.60;78.42;101672.78;5057488;28;20111;-81